Time;durP1;ratioP1;P1;durP2;ratioP2;P2;SDS_P1;SDS_P2;PMS_P1;PMS_P2;Temp;Humidity;BMP_temperature;BMP_pressure;BME280_temperature;BME280_humidity;BME280_pressure;Samples;Min_cycle;Max_cycle;Signal;HPM_P1;HPM_P2
2023/10/19 00:00:48;;;;;;;34.92;17.77;;;;;;;10.58;100.00;97282.97;5029829;28;20131;-56
2023/10/19 00:03:14;;;;;;;34.63;17.08;;;;;;;10.58;100.00;97280.25;5028996;28;20056;-56
2023/10/19 00:05:41;;;;;;;28.80;16.63;;;;;;;10.63;100.00;97280.34;5025928;28;20056;-56
2023/10/19 00:08:15;;;;;;;32.53;17.27;;;;;;;10.65;100.00;97272.84;5025347;28;20021;-56
2023/10/19 00:10:48;;;;;;;26.52;15.73;;;;;;;10.61;100.00;97277.09;5023324;28;20358;-57
2023/10/19 00:13:14;;;;;;;27.35;15.40;;;;;;;10.60;100.00;97282.72;5028585;28;20499;-56
2023/10/19 00:15:46;;;;;;;33.58;15.57;;;;;;;10.56;100.00;97279.69;5031186;28;20031;-56
2023/10/19 00:23:13;;;;;;;30.77;16.08;;;;;;;10.59;100.00;97265.69;5044340;28;20499;-56
2023/10/19 00:25:41;;;;;;;28.73;16.25;;;;;;;10.58;100.00;97261.31;5020542;28;20017;-55
2023/10/19 00:28:07;;;;;;;29.40;16.88;;;;;;;10.60;100.00;97264.63;5026366;28;20029;-56
2023/10/19 00:30:35;;;;;;;32.70;17.15;;;;;;;10.61;100.00;97260.88;5022333;28;20510;-56
2023/10/19 00:33:03;;;;;;;32.13;17.45;;;;;;;10.59;100.00;97263.00;5021118;28;20094;-56
2023/10/19 00:35:34;;;;;;;29.17;16.97;;;;;;;10.61;100.00;97258.16;5020553;28;20107;-56
2023/10/19 00:39:14;;;;;;;31.08;15.88;;;;;;;10.65;100.00;97256.59;5034843;28;20028;-56
2023/10/19 00:41:31;;;;;;;27.52;15.07;;;;;;;10.67;100.00;97256.38;5050373;28;20032;-56
2023/10/19 00:44:02;;;;;;;28.63;15.65;;;;;;;10.74;100.00;97254.31;5022222;28;20192;-56
2023/10/19 00:46:32;;;;;;;29.50;15.80;;;;;;;10.74;100.00;97265.13;5025121;28;20127;-56
2023/10/19 00:49:02;;;;;;;34.42;16.17;;;;;;;10.70;100.00;97266.72;5035634;28;20503;-57
2023/10/19 00:53:59;;;;;;;26.95;15.95;;;;;;;10.75;100.00;97262.22;5039506;28;20033;-56
2023/10/19 00:56:32;;;;;;;29.35;16.75;;;;;;;10.77;100.00;97255.72;5022314;28;20013;-56
2023/10/19 00:59:14;;;;;;;27.88;15.05;;;;;;;10.79;100.00;97245.47;5033553;28;20037;-56
2023/10/19 01:01:44;;;;;;;26.50;15.30;;;;;;;10.83;100.00;97242.06;5027050;28;20013;-56
2023/10/19 01:04:14;;;;;;;31.45;15.80;;;;;;;10.89;100.00;97240.25;5022814;28;20518;-58
2023/10/19 01:07:00;;;;;;;36.08;15.20;;;;;;;10.93;100.00;97231.41;5028171;28;20384;-56
2023/10/19 01:09:28;;;;;;;29.95;13.73;;;;;;;11.01;100.00;97215.84;5031756;28;20021;-56
2023/10/19 01:11:54;;;;;;;25.42;12.80;;;;;;;11.04;100.00;97221.59;5022923;28;20029;-56
2023/10/19 01:14:27;;;;;;;25.35;14.02;;;;;;;11.16;100.00;97203.38;5031001;28;20108;-57
2023/10/19 01:16:56;;;;;;;22.00;11.93;;;;;;;11.29;100.00;97198.69;5027372;28;20124;-57
2023/10/19 01:19:23;;;;;;;20.08;10.98;;;;;;;11.37;100.00;97207.22;5026465;28;20033;-57
2023/10/19 01:21:58;;;;;;;17.98;11.13;;;;;;;11.39;100.00;97209.69;5032895;28;20471;-56
2023/10/19 01:27:18;;;;;;;21.63;12.55;;;;;;;11.32;100.00;97209.06;5027885;28;20067;-57
2023/10/19 01:29:44;;;;;;;19.90;11.73;;;;;;;11.34;100.00;97215.84;5036488;28;20052;-57
2023/10/19 01:32:10;;;;;;;21.45;11.77;;;;;;;11.34;100.00;97210.44;5027794;28;20112;-57
2023/10/19 01:34:36;;;;;;;19.00;11.32;;;;;;;11.39;100.00;97213.19;5031792;28;20088;-57
2023/10/19 01:37:03;;;;;;;23.98;11.95;;;;;;;11.43;100.00;97207.31;5035594;28;20033;-57
2023/10/19 01:39:36;;;;;;;18.45;11.00;;;;;;;11.44;100.00;97198.91;5027327;28;20093;-57
2023/10/19 01:42:04;;;;;;;21.90;12.13;;;;;;;11.47;100.00;97197.59;5028621;28;20437;-57
2023/10/19 01:44:30;;;;;;;21.45;11.40;;;;;;;11.47;100.00;97195.72;5039758;28;20082;-57
2023/10/19 01:46:55;;;;;;;20.80;11.93;;;;;;;11.48;100.00;97191.97;5030524;28;20436;-56
2023/10/19 01:49:27;;;;;;;21.40;11.80;;;;;;;11.51;100.00;97194.16;5030141;28;20020;-57
2023/10/19 01:51:54;;;;;;;26.55;12.82;;;;;;;11.49;100.00;97187.34;5031461;28;20497;-56
2023/10/19 01:54:23;;;;;;;23.85;11.73;;;;;;;11.49;100.00;97174.63;5028250;28;20025;-56
2023/10/19 01:56:56;;;;;;;;;;;;;;;11.49;100.00;97180.03;5032787;28;20484;-57
2023/10/19 01:59:29;;;;;;;25.10;12.27;;;;;;;11.46;100.00;97175.13;5028021;28;19923;-56
2023/10/19 02:01:55;;;;;;;22.83;12.18;;;;;;;11.47;100.00;97173.22;5023051;28;20056;-56
2023/10/19 02:04:21;;;;;;;22.13;12.90;;;;;;;11.53;100.00;97175.78;5028559;28;20434;-56
2023/10/19 02:06:48;;;;;;;21.05;11.38;;;;;;;11.56;100.00;97180.69;5026686;28;20021;-56
2023/10/19 02:11:56;;;;;;;21.92;12.32;;;;;;;11.55;100.00;97168.22;5046805;28;20061;-56
2023/10/19 02:14:24;;;;;;;24.75;12.15;;;;;;;11.57;100.00;97166.06;5028571;28;20033;-56
2023/10/19 02:16:52;;;;;;;26.55;12.32;;;;;;;11.57;100.00;97154.41;5032233;28;20029;-57
2023/10/19 02:19:19;;;;;;;19.98;11.52;;;;;;;11.59;100.00;97157.72;5030925;28;20037;-60
2023/10/19 02:21:47;;;;;;;19.90;12.10;;;;;;;11.65;100.00;97145.84;5031776;28;20025;-58
2023/10/19 02:24:14;;;;;;;22.45;10.70;;;;;;;11.67;100.00;97138.31;5037712;28;20025;-57
2023/10/19 02:26:40;;;;;;;22.58;12.15;;;;;;;11.70;100.00;97147.81;5029939;28;20384;-56
2023/10/19 02:29:09;;;;;;;21.42;11.65;;;;;;;11.73;100.00;97147.31;5034895;28;20025;-57
2023/10/19 02:31:39;;;;;;;23.70;11.30;;;;;;;11.76;100.00;97141.38;5034319;28;20032;-57
2023/10/19 02:34:07;;;;;;;21.77;11.32;;;;;;;11.78;100.00;97140.06;5026947;28;20399;-56
2023/10/19 02:36:33;;;;;;;25.52;11.50;;;;;;;11.88;100.00;97146.72;5032658;28;20085;-56
2023/10/19 02:39:07;;;;;;;20.08;10.55;;;;;;;11.88;100.00;97134.00;5044913;28;20451;-56
2023/10/19 02:41:41;;;;;;;16.05;9.82;;;;;;;11.90;100.00;97136.47;5049087;28;20025;-56
2023/10/19 02:46:43;;;;;;;19.67;10.80;;;;;;;11.86;100.00;97130.72;5043824;28;20025;-57
2023/10/19 02:49:13;;;;;;;21.15;10.50;;;;;;;11.84;100.00;97121.97;5030473;28;20021;-56
2023/10/19 02:51:39;;;;;;;19.55;10.55;;;;;;;11.86;100.00;97125.28;5027685;28;20095;-57
2023/10/19 02:54:07;;;;;;;15.88;10.07;;;;;;;11.89;100.00;97130.19;5036052;28;20528;-57
2023/10/19 02:56:35;;;;;;;22.33;10.10;;;;;;;11.92;100.00;97134.28;5028823;28;20051;-57
2023/10/19 02:59:03;;;;;;;19.45;9.85;;;;;;;11.91;100.00;97127.25;5037446;28;20392;-56
2023/10/19 03:01:31;;;;;;;22.73;11.25;;;;;;;11.90;100.00;97115.59;5030081;28;20024;-56
2023/10/19 03:04:00;;;;;;;17.92;10.23;;;;;;;11.89;100.00;97116.66;5031196;28;20032;-56
2023/10/19 03:06:31;;;;;;;15.10;9.85;;;;;;;11.88;100.00;97112.31;5024329;28;20022;-57
2023/10/19 03:09:04;;;;;;;17.45;10.02;;;;;;;11.93;100.00;97109.66;5028348;28;20054;-57
2023/10/19 03:11:32;;;;;;;22.48;11.20;;;;;;;11.92;100.00;97108.03;5026589;28;20017;-57
2023/10/19 03:13:58;;;;;;;18.92;10.77;;;;;;;11.93;100.00;97114.28;5021051;28;20025;-57
2023/10/19 03:16:23;;;;;;;16.35;10.35;;;;;;;11.95;100.00;97104.00;5030112;28;20025;-57
2023/10/19 03:18:52;;;;;;;17.35;10.10;;;;;;;12.01;100.00;97113.81;5027607;28;20510;-57
2023/10/19 03:21:19;;;;;;;15.77;9.15;;;;;;;12.01;100.00;97111.91;5044656;28;20040;-57
2023/10/19 03:23:44;;;;;;;17.35;10.57;;;;;;;12.00;100.00;97096.75;5021567;28;20030;-57
2023/10/19 03:26:30;;;;;;;24.25;11.90;;;;;;;11.98;100.00;97100.78;5021789;28;20162;-57
2023/10/19 03:29:07;;;;;;;22.23;11.80;;;;;;;11.92;100.00;97097.19;5032966;28;20459;-58
2023/10/19 03:31:32;;;;;;;27.15;11.52;;;;;;;11.98;100.00;97082.63;5031339;28;20432;-57
2023/10/19 03:33:59;;;;;;;26.15;12.43;;;;;;;11.94;100.00;97078.75;5033387;28;20039;-57
2023/10/19 03:36:26;;;;;;;21.05;11.07;;;;;;;11.88;100.00;97089.81;5033584;28;20358;-57
2023/10/19 03:38:53;;;;;;;22.88;10.48;;;;;;;11.86;100.00;97095.47;5027009;28;20021;-57
2023/10/19 03:41:25;;;;;;;38.35;12.02;;;;;;;11.78;100.00;97094.00;5031161;28;20028;-57
2023/10/19 03:43:54;;;;;;;23.17;10.82;;;;;;;11.78;100.00;97090.47;5025626;28;20480;-57
2023/10/19 03:46:37;;;;;;;35.30;12.27;;;;;;;11.81;100.00;97089.97;5022575;28;20028;-57
2023/10/19 03:49:10;;;;;;;23.48;10.77;;;;;;;11.87;100.00;97077.31;5035542;23;20045;-75
2023/10/19 03:51:58;;;;;;;27.52;11.13;;;;;;;11.87;100.00;97074.63;5046021;28;20169;-75
2023/10/19 03:54:24;;;;;;;21.60;10.40;;;;;;;11.81;100.00;97060.97;5051990;28;20029;-77
2023/10/19 03:56:53;;;;;;;27.70;11.18;;;;;;;11.78;100.00;97063.38;5052746;28;20025;-76
2023/10/19 03:59:20;;;;;;;21.95;11.60;;;;;;;11.75;100.00;97048.47;5048998;28;20041;-77
2023/10/19 04:01:45;;;;;;;37.53;14.35;;;;;;;11.75;100.00;97039.53;5055030;28;20024;-78
2023/10/19 04:04:11;;;;;;;23.08;10.45;;;;;;;11.80;100.00;97058.53;5068282;28;20076;-74
2023/10/19 04:06:37;;;;;;;23.27;10.73;;;;;;;11.73;100.00;97066.03;5054290;28;20021;-75
2023/10/19 04:09:09;;;;;;;29.48;11.70;;;;;;;11.69;100.00;97059.50;5050742;28;20036;-75
2023/10/19 04:11:48;;;;;;;22.63;9.55;;;;;;;11.63;100.00;97054.03;5046132;28;20314;-75
2023/10/19 04:14:15;;;;;;;17.40;8.85;;;;;;;11.62;100.00;97059.69;5061617;28;20091;-76
2023/10/19 04:16:43;;;;;;;20.63;10.25;;;;;;;11.62;100.00;97046.16;5059044;28;20212;-73
2023/10/19 04:19:13;;;;;;;22.95;10.10;;;;;;;11.75;100.00;97045.75;5058012;28;20029;-75
2023/10/19 04:21:39;;;;;;;20.13;9.43;;;;;;;11.76;100.00;97044.69;5043311;28;20027;-75
2023/10/19 04:24:07;;;;;;;19.35;8.80;;;;;;;11.71;100.00;97025.69;5046524;28;20024;-79
2023/10/19 04:26:52;;;;;;;22.52;9.52;;;;;;;11.78;100.00;97031.69;5055336;28;20021;-78
2023/10/19 04:29:26;;;;;;;20.27;8.90;;;;;;;11.69;100.00;97008.03;5043987;28;20376;-76
2023/10/19 04:31:54;;;;;;;15.48;8.57;;;;;;;11.70;100.00;97025.91;5057317;28;20031;-77
2023/10/19 04:34:21;;;;;;;15.85;8.48;;;;;;;11.66;100.00;97032.91;5052332;28;20036;-75
2023/10/19 04:36:49;;;;;;;20.08;8.45;;;;;;;11.54;100.00;97031.16;5062839;28;20433;-75
2023/10/19 04:39:15;;;;;;;16.87;8.40;;;;;;;11.48;100.00;97026.75;5061425;28;20346;-73
2023/10/19 04:41:41;;;;;;;17.83;8.43;;;;;;;11.45;100.00;97029.13;5057789;28;20032;-77
2023/10/19 04:44:10;;;;;;;14.68;8.77;;;;;;;11.51;100.00;97030.84;5028865;28;20029;-78
2023/10/19 04:46:36;;;;;;;19.77;8.00;;;;;;;11.51;100.00;97011.91;5039678;28;20371;-71
2023/10/19 04:49:02;;;;;;;14.18;8.65;;;;;;;11.56;100.00;97017.38;5058385;28;20056;-72
2023/10/19 04:51:28;;;;;;;19.15;9.20;;;;;;;11.65;100.00;97021.25;5062336;28;20044;-78
2023/10/19 04:53:55;;;;;;;20.42;9.80;;;;;;;11.65;100.00;97023.97;5045125;28;20017;-78
2023/10/19 04:56:20;;;;;;;16.40;8.75;;;;;;;11.66;100.00;97016.66;5055572;28;20039;-75
2023/10/19 04:58:47;;;;;;;17.17;9.57;;;;;;;11.67;100.00;97021.00;5061141;28;20326;-75
2023/10/19 05:01:12;;;;;;;17.88;9.38;;;;;;;11.68;100.00;97009.09;5057809;28;20245;-75
2023/10/19 05:03:38;;;;;;;18.95;9.30;;;;;;;11.56;100.00;97010.06;5039044;28;20090;-75
2023/10/19 05:06:03;;;;;;;19.17;9.02;;;;;;;11.45;100.00;97021.84;5047052;28;20092;-74
2023/10/19 05:08:29;;;;;;;13.25;8.07;;;;;;;11.35;100.00;97010.91;5039959;28;20021;-74
2023/10/19 05:10:55;;;;;;;17.23;8.27;;;;;;;11.24;100.00;97014.53;5050242;28;20096;-75
2023/10/19 05:13:25;;;;;;;15.55;8.70;;;;;;;11.21;100.00;97005.03;5058893;28;20056;-77
2023/10/19 05:15:51;;;;;;;19.90;9.50;;;;;;;11.04;100.00;97002.38;5068207;28;20036;-79
2023/10/19 05:18:16;;;;;;;16.85;8.85;;;;;;;10.91;100.00;96990.03;5047445;28;20039;-79
2023/10/19 05:20:41;;;;;;;18.13;9.82;;;;;;;10.96;100.00;96997.41;5065328;28;20059;-76
2023/10/19 05:23:08;;;;;;;24.75;9.50;;;;;;;11.02;100.00;97007.22;5064693;28;20028;-76
2023/10/19 05:25:36;;;;;;;26.48;12.73;;;;;;;11.12;100.00;97009.25;5060365;28;20016;-79
2023/10/19 05:28:01;;;;;;;29.67;13.93;;;;;;;11.10;100.00;96997.84;5059218;28;20028;-79
2023/10/19 05:30:27;;;;;;;25.38;12.65;;;;;;;11.01;100.00;97000.19;5050882;28;20029;-79
2023/10/19 05:32:52;;;;;;;23.23;11.90;;;;;;;10.98;100.00;97008.81;5061727;28;20367;-79
2023/10/19 05:35:26;;;;;;;19.45;10.77;;;;;;;10.82;100.00;97002.38;5071045;28;20024;-79
2023/10/19 05:37:51;;;;;;;15.23;9.68;;;;;;;10.83;100.00;97019.41;5065601;28;20029;-78
2023/10/19 05:40:18;;;;;;;26.23;10.07;;;;;;;10.87;100.00;97023.25;5033623;28;20051;-76
2023/10/19 05:42:43;;;;;;;28.88;13.85;;;;;;;11.02;100.00;97023.47;5061144;28;20040;-76
2023/10/19 05:45:09;;;;;;;33.92;14.25;;;;;;;11.03;100.00;97022.41;5062081;28;20237;-75
2023/10/19 05:47:34;;;;;;;37.25;14.70;;;;;;;10.90;100.00;97020.06;5040610;28;20045;-75
2023/10/19 05:50:00;;;;;;;23.75;12.32;;;;;;;10.83;100.00;97020.22;5068232;28;20260;-75
2023/10/19 05:52:25;;;;;;;25.23;11.82;;;;;;;10.75;100.00;97032.28;5040963;28;20036;-75
2023/10/19 05:54:50;;;;;;;25.35;11.93;;;;;;;10.62;100.00;97029.91;5060610;28;20330;-75
2023/10/19 05:57:16;;;;;;;28.40;12.50;;;;;;;10.61;100.00;97031.00;5042341;28;20028;-75
2023/10/19 05:59:41;;;;;;;27.67;12.45;;;;;;;10.83;100.00;97032.94;5046226;28;20088;-76
2023/10/19 06:02:07;;;;;;;26.13;12.80;;;;;;;10.94;100.00;97038.22;5058214;28;20032;-75
2023/10/19 06:04:33;;;;;;;28.17;12.63;;;;;;;11.12;100.00;97037.13;5047293;28;20024;-71
2023/10/19 06:06:58;;;;;;;22.88;11.60;;;;;;;11.25;100.00;97035.13;5055117;28;20084;-71
2023/10/19 06:09:29;;;;;;;27.95;12.40;;;;;;;11.38;100.00;97042.88;5060027;28;20380;-71
2023/10/19 06:11:55;;;;;;;22.58;12.70;;;;;;;11.39;100.00;97033.66;5046344;28;20028;-71
2023/10/19 06:14:20;;;;;;;27.63;13.93;;;;;;;11.39;100.00;97023.66;5066243;28;20017;-71
2023/10/19 06:16:45;;;;;;;29.40;13.07;;;;;;;11.44;100.00;97043.75;5057686;28;20025;-76
2023/10/19 06:19:10;;;;;;;26.27;12.25;;;;;;;11.48;100.00;97043.00;5061449;28;20052;-77
2023/10/19 06:21:36;;;;;;;22.23;11.85;;;;;;;11.55;100.00;97046.34;5058004;28;20092;-74
2023/10/19 06:24:02;;;;;;;18.55;11.10;;;;;;;11.73;100.00;97047.06;5040283;28;20140;-75
2023/10/19 06:26:28;;;;;;;21.55;12.15;;;;;;;11.62;100.00;97040.72;5040050;28;20040;-76
2023/10/19 06:28:58;;;;;;;27.30;14.90;;;;;;;11.59;100.00;97050.19;5038021;28;20025;-75
2023/10/19 06:31:25;;;;;;;26.90;12.80;;;;;;;11.55;100.00;97043.66;5067197;28;20029;-76
2023/10/19 06:33:51;;;;;;;27.88;14.30;;;;;;;11.58;100.00;97042.28;5062245;28;20052;-78
2023/10/19 06:36:18;;;;;;;26.23;14.20;;;;;;;11.53;100.00;97031.44;5050160;28;20048;-75
2023/10/19 06:38:44;;;;;;;29.52;14.40;;;;;;;11.58;100.00;97037.72;5056244;28;20048;-77
2023/10/19 06:41:13;;;;;;;21.00;12.35;;;;;;;11.69;100.00;97032.41;5058216;28;20135;-79
2023/10/19 06:43:39;;;;;;;;;;;;;;;11.77;100.00;97027.34;5060364;28;20024;-75
2023/10/19 06:46:05;;;;;;;27.55;11.35;;;;;;;11.76;100.00;97041.16;5073278;28;19909;-72
2023/10/19 06:48:31;;;;;;;20.42;10.95;;;;;;;11.73;100.00;97026.22;5068390;28;20112;-73
2023/10/19 06:50:57;;;;;;;21.35;11.63;;;;;;;11.78;100.00;97036.28;5058097;28;20033;-78
2023/10/19 06:53:22;;;;;;;19.70;11.20;;;;;;;11.84;100.00;97029.84;5066666;28;20095;-75
2023/10/19 06:55:47;;;;;;;24.67;14.20;;;;;;;11.80;100.00;97029.53;5073528;28;20333;-74
2023/10/19 06:58:14;;;;;;;24.20;11.88;;;;;;;11.96;100.00;97030.56;5076663;28;20070;-78
2023/10/19 07:00:42;;;;;;;17.05;10.25;;;;;;;12.06;100.00;97033.38;5073100;28;20039;-76
2023/10/19 07:03:08;;;;;;;20.00;9.82;;;;;;;12.16;100.00;97023.72;5057373;28;20028;-77
2023/10/19 07:05:34;;;;;;;15.13;9.32;;;;;;;12.41;100.00;97015.78;5064938;28;20112;-77
2023/10/19 07:08:01;;;;;;;16.35;9.82;;;;;;;12.50;100.00;97021.56;5063790;28;20074;-77
2023/10/19 07:10:46;;;;;;;15.70;8.75;;;;;;;12.59;100.00;97000.19;5056502;28;20024;-78
2023/10/19 07:13:22;;;;;;;14.68;9.35;;;;;;;12.68;100.00;96995.88;5031211;28;20044;-78
2023/10/19 07:15:49;;;;;;;24.25;9.30;;;;;;;13.07;100.00;97018.16;5063995;28;20035;-75
2023/10/19 07:18:14;;;;;;;16.70;8.48;;;;;;;13.07;100.00;97009.16;5060176;28;20096;-76
2023/10/19 07:20:42;;;;;;;15.20;7.70;;;;;;;13.29;100.00;97018.00;5060414;28;20024;-75
2023/10/19 07:23:18;;;;;;;9.73;7.50;;;;;;;13.32;100.00;97020.19;5059855;28;20096;-75
2023/10/19 07:25:48;;;;;;;12.88;6.80;;;;;;;13.42;100.00;97013.19;5056491;28;20024;-76
2023/10/19 07:28:14;;;;;;;16.55;8.70;;;;;;;13.19;100.00;97017.09;5056518;28;20051;-76
2023/10/19 07:30:41;;;;;;;20.42;9.55;;;;;;;12.90;100.00;97007.44;5050963;28;20246;-75
2023/10/19 07:33:10;;;;;;;17.45;8.23;;;;;;;12.93;100.00;97009.63;5029245;28;20087;-75
2023/10/19 07:35:42;;;;;;;16.85;8.73;;;;;;;13.05;100.00;97014.88;5054728;28;20096;-74
2023/10/19 07:38:08;;;;;;;14.48;8.07;;;;;;;12.80;100.00;97003.84;5050997;28;20036;-72
2023/10/19 07:40:34;;;;;;;12.27;7.68;;;;;;;12.99;100.00;97017.81;5058163;28;20017;-80
2023/10/19 07:43:00;;;;;;;15.45;7.32;;;;;;;13.24;100.00;97009.78;5056467;28;20040;-80
2023/10/19 07:45:25;;;;;;;11.93;6.25;;;;;;;13.44;100.00;97005.56;5056776;28;20108;-75
2023/10/19 07:47:50;;;;;;;12.95;6.60;;;;;;;13.60;100.00;97007.25;5036855;28;20033;-75
2023/10/19 07:50:16;;;;;;;9.13;6.03;;;;;;;13.86;100.00;97001.88;5042393;28;20345;-74
2023/10/19 07:52:47;;;;;;;15.07;6.13;;;;;;;13.90;100.00;97009.22;5054857;28;20311;-74
2023/10/19 07:55:12;;;;;;;8.00;5.72;;;;;;;14.07;100.00;97000.00;5045681;28;20039;-73
2023/10/19 07:57:40;;;;;;;8.02;5.20;;;;;;;14.18;100.00;97002.47;5054246;28;20025;-75
2023/10/19 08:00:08;;;;;;;10.80;5.68;;;;;;;14.35;100.00;97001.41;5062845;28;20039;-73
2023/10/19 08:02:34;;;;;;;9.60;4.57;;;;;;;14.38;100.00;96989.97;5035252;28;20040;-73
2023/10/19 08:05:02;;;;;;;9.68;5.78;;;;;;;14.44;100.00;96980.72;5048272;28;20085;-78
2023/10/19 08:07:28;;;;;;;7.65;4.47;;;;;;;14.68;100.00;96979.09;5073593;28;20020;-78
2023/10/19 08:09:54;;;;;;;6.25;4.20;;;;;;;14.86;100.00;96987.78;5055917;28;20436;-78
2023/10/19 08:12:22;;;;;;;8.95;4.88;;;;;;;14.94;100.00;96970.88;5055814;28;20037;-76
2023/10/19 08:14:48;;;;;;;8.00;4.78;;;;;;;14.92;100.00;96955.91;5052322;28;20079;-77
2023/10/19 08:17:14;;;;;;;10.15;4.70;;;;;;;15.10;100.00;96955.31;5052483;28;20037;-75
2023/10/19 08:19:39;;;;;;;6.82;4.60;;;;;;;15.70;100.00;96960.78;5052685;28;20344;-78
2023/10/19 08:22:05;;;;;;;5.65;4.47;;;;;;;16.52;100.00;96958.25;5038317;28;20233;-76
2023/10/19 08:24:30;;;;;;;12.77;4.40;;;;;;;16.75;100.00;96918.44;5044244;28;20028;-76
2023/10/19 08:26:56;;;;;;;9.30;4.15;;;;;;;16.96;100.00;96905.41;5047603;28;20257;-77
2023/10/19 08:29:21;;;;;;;5.30;3.38;;;;;;;16.98;100.00;96907.84;5066764;28;20045;-75
2023/10/19 08:31:46;;;;;;;8.85;3.70;;;;;;;16.89;100.00;96920.50;5036139;28;20025;-76
2023/10/19 08:34:13;;;;;;;8.40;3.60;;;;;;;17.05;100.00;96932.88;5058506;28;20384;-80
2023/10/19 08:36:39;;;;;;;7.00;4.40;;;;;;;18.20;100.00;96912.72;5007055;28;20021;-76
2023/10/19 08:39:09;;;;;;;7.80;3.65;;;;;;;20.42;100.00;96895.78;5063486;28;20060;-77
2023/10/19 08:41:34;;;;;;;8.50;3.00;;;;;;;21.92;100.00;96873.94;5034942;28;20064;-75
2023/10/19 08:44:02;;;;;;;5.22;2.75;;;;;;;22.83;100.00;96870.06;5053292;28;20029;-75
2023/10/19 08:46:28;;;;;;;3.80;2.47;;;;;;;23.67;100.00;96873.03;5039581;28;20013;-77
2023/10/19 08:48:56;;;;;;;6.88;3.08;;;;;;;23.65;100.00;96871.75;5045295;28;20080;-74
2023/10/19 08:51:23;;;;;;;6.68;2.85;;;;;;;23.73;100.00;96874.47;5044763;28;20027;-74
2023/10/19 08:53:50;;;;;;;8.60;3.20;;;;;;;24.08;100.00;96871.44;5063347;28;20325;-76
2023/10/19 08:56:16;;;;;;;10.27;3.03;;;;;;;24.44;100.00;96851.44;5055883;28;20029;-75
2023/10/19 08:58:41;;;;;;;6.50;2.67;;;;;;;24.95;100.00;96861.44;5057983;28;20390;-75
2023/10/19 09:01:06;;;;;;;6.88;2.80;;;;;;;26.58;100.00;96864.00;5061926;28;20051;-74
2023/10/19 09:03:33;;;;;;;4.05;1.60;;;;;;;27.48;99.85;96862.31;5062725;28;20034;-75
2023/10/19 09:06:02;;;;;;;2.20;1.50;;;;;;;27.29;96.84;96865.81;5055443;28;20027;-72
2023/10/19 09:08:38;;;;;;;3.15;1.33;;;;;;;27.48;91.75;96851.19;5056905;28;20024;-72
2023/10/19 09:11:09;;;;;;;2.28;1.27;;;;;;;28.82;77.89;96861.88;5058982;28;20032;-72
2023/10/19 09:13:47;;;;;;;3.22;1.38;;;;;;;30.29;68.71;96849.38;5064435;28;20356;-73
2023/10/19 09:16:16;;;;;;;4.07;1.48;;;;;;;30.45;66.34;96838.78;5061834;28;20043;-73
2023/10/19 09:18:42;;;;;;;1.52;1.13;;;;;;;30.37;65.20;96831.53;5063218;28;20051;-73
2023/10/19 09:21:11;;;;;;;1.95;1.02;;;;;;;30.02;65.41;96843.03;5055051;28;20029;-73
2023/10/19 09:23:37;;;;;;;4.10;1.35;;;;;;;29.60;65.24;96832.88;5057646;28;20031;-74
2023/10/19 09:26:05;;;;;;;2.58;1.00;;;;;;;29.75;64.47;96834.72;5047206;28;20027;-74
2023/10/19 09:28:33;;;;;;;3.60;1.20;;;;;;;30.63;60.94;96835.34;5054911;28;20119;-74
2023/10/19 09:31:00;;;;;;;2.72;0.90;;;;;;;29.36;61.86;96829.34;5061269;28;20348;-74
2023/10/19 09:33:27;;;;;;;2.67;1.20;;;;;;;28.73;65.71;96827.13;5059377;28;20068;-73
2023/10/19 09:35:53;;;;;;;4.93;1.10;;;;;;;29.40;65.60;96819.09;5060462;28;20017;-73
2023/10/19 09:38:21;;;;;;;3.20;0.88;;;;;;;30.17;62.44;96821.69;5052164;28;20029;-74
2023/10/19 09:40:49;;;;;;;4.57;1.60;;;;;;;29.69;60.47;96830.66;5051702;28;20074;-74
2023/10/19 09:43:45;;;;;;;2.47;1.10;;;;;;;29.02;65.70;96831.97;5060292;28;20044;-73
2023/10/19 09:46:12;;;;;;;3.88;1.10;;;;;;;27.42;70.98;96830.41;5031475;28;20053;-73
2023/10/19 09:48:47;;;;;;;2.35;1.00;;;;;;;27.86;73.72;96832.97;5043989;28;20021;-74
2023/10/19 09:51:13;;;;;;;2.97;1.30;;;;;;;28.32;68.09;96810.03;5048902;28;20097;-73
2023/10/19 09:53:39;;;;;;;3.95;0.95;;;;;;;26.49;73.57;96810.63;5033647;28;20017;-74
2023/10/19 09:56:13;;;;;;;4.72;1.52;;;;;;;26.35;100.00;96803.53;5056123;28;20029;-72
2023/10/19 09:58:51;;;;;;;4.07;1.20;;;;;;;27.60;84.65;96802.22;5057298;28;20069;-72
2023/10/19 10:01:18;;;;;;;4.97;1.00;;;;;;;27.92;83.10;96805.69;5053523;28;20028;-72
2023/10/19 10:03:48;;;;;;;3.03;1.10;;;;;;;26.63;85.51;96799.94;5058579;28;20016;-72
2023/10/19 10:06:15;;;;;;;3.92;1.10;;;;;;;25.61;100.00;96816.06;5058982;28;20028;-72
2023/10/19 10:08:43;;;;;;;2.50;1.10;;;;;;;26.40;100.00;96808.81;5060695;28;20066;-73
2023/10/19 10:11:28;;;;;;;3.90;1.40;;;;;;;26.56;99.28;96806.09;5055922;28;20063;-72
2023/10/19 10:13:55;;;;;;;2.38;1.08;;;;;;;25.91;100.00;96803.53;5042494;28;20024;-74
2023/10/19 10:16:28;;;;;;;4.03;1.17;;;;;;;24.56;100.00;96800.09;5037717;28;20021;-74
2023/10/19 10:19:00;;;;;;;3.50;1.30;;;;;;;24.12;100.00;96814.34;5054028;28;20028;-74
2023/10/19 10:21:27;;;;;;;4.15;1.40;;;;;;;23.28;100.00;96800.56;5048535;28;20025;-71
2023/10/19 10:24:03;;;;;;;3.28;1.38;;;;;;;23.10;100.00;96810.09;5051111;28;20076;-73
2023/10/19 10:26:35;;;;;;;3.63;1.40;;;;;;;22.93;100.00;96803.50;5037524;28;20029;-75
2023/10/19 10:29:19;;;;;;;3.30;1.38;;;;;;;22.37;100.00;96799.22;5045467;28;20342;-74
2023/10/19 10:31:47;;;;;;;4.13;1.63;;;;;;;22.30;100.00;96794.22;5058217;28;20052;-74
2023/10/19 10:34:36;;;;;;;4.22;1.73;;;;;;;21.93;100.00;96791.03;5062240;28;20025;-76
2023/10/19 10:37:10;;;;;;;2.13;1.20;;;;;;;21.32;100.00;96787.47;5049180;28;20029;-74
2023/10/19 10:39:37;;;;;;;5.32;1.40;;;;;;;21.18;100.00;96791.16;5066785;28;20021;-75
2023/10/19 10:42:04;;;;;;;4.60;1.70;;;;;;;21.19;100.00;96780.97;5055145;28;20048;-74
2023/10/19 10:44:44;;;;;;;5.68;1.60;;;;;;;21.04;100.00;96786.94;5045820;28;20028;-73
2023/10/19 10:47:17;;;;;;;6.10;1.92;;;;;;;20.55;100.00;96795.22;5062605;28;20352;-74
2023/10/19 10:50:00;;;;;;;3.13;1.70;;;;;;;20.46;100.00;96802.56;5058055;28;20048;-73
2023/10/19 10:52:31;;;;;;;5.72;2.25;;;;;;;20.29;100.00;96800.56;5044372;28;20029;-75
2023/10/19 10:54:58;;;;;;;6.13;2.00;;;;;;;20.28;100.00;96793.44;5058222;28;20036;-74
2023/10/19 10:57:24;;;;;;;5.68;2.08;;;;;;;20.50;100.00;96798.06;5062142;28;20038;-74
2023/10/19 11:00:09;;;;;;;3.60;1.80;;;;;;;20.84;100.00;96796.59;5050474;28;20026;-73
2023/10/19 11:02:42;;;;;;;2.28;1.38;;;;;;;21.55;100.00;96788.94;5060581;28;20024;-73
2023/10/19 11:05:11;;;;;;;3.55;1.35;;;;;;;21.94;100.00;96789.09;5062322;28;20033;-74
2023/10/19 11:07:36;;;;;;;;;;;;;;;21.85;100.00;96781.66;5059470;28;20029;-75
2023/10/19 11:10:02;;;;;;;3.20;1.52;;;;;;;21.83;100.00;96785.88;5054066;28;19946;-75
2023/10/19 11:12:27;;;;;;;3.35;1.30;;;;;;;21.62;100.00;96796.72;5044316;28;20028;-75
2023/10/19 11:14:59;;;;;;;4.28;1.42;;;;;;;21.40;100.00;96783.94;5054344;28;20253;-74
2023/10/19 11:17:30;;;;;;;5.38;1.58;;;;;;;20.84;100.00;96791.09;5042638;28;20017;-75
2023/10/19 11:19:56;;;;;;;7.32;1.77;;;;;;;20.24;100.00;96806.19;5049073;28;20338;-75
2023/10/19 11:22:24;;;;;;;4.93;1.85;;;;;;;19.78;100.00;96793.63;5061095;28;20056;-74
2023/10/19 11:24:52;;;;;;;3.08;1.70;;;;;;;19.63;100.00;96803.03;5047213;28;20766;-75
2023/10/19 11:27:28;;;;;;;2.78;1.30;;;;;;;19.39;100.00;96812.34;5060789;28;20394;-75
2023/10/19 11:29:58;;;;;;;7.20;1.95;;;;;;;19.20;100.00;96811.66;5046337;28;20063;-74
2023/10/19 11:32:27;;;;;;;2.42;1.60;;;;;;;19.21;100.00;96807.81;5057413;28;20060;-73
2023/10/19 11:34:56;;;;;;;;;;;;;;;18.94;100.00;96800.44;5054197;28;20033;-73
2023/10/19 11:37:22;;;;;;;3.63;1.65;;;;;;;18.80;100.00;96809.50;5063403;28;20018;-72
2023/10/19 11:39:48;;;;;;;7.80;2.00;;;;;;;18.76;100.00;96805.75;5052213;28;20265;-72